Time;durP1;ratioP1;P1;durP2;ratioP2;P2;SDS_P1;SDS_P2;PMS_P1;PMS_P2;Temp;Humidity;BMP_temperature;BMP_pressure;BME280_temperature;BME280_humidity;BME280_pressure;Samples;Min_cycle;Max_cycle;Signal;HPM_P1;HPM_P2
2023/06/03 00:03:50;;;;;;;;;;;;;;;6.12;65.31;99114.48;435631;1252;99221;-43
2023/06/03 00:13:56;;;;;;;;;;;;;;;5.93;65.44;99118.69;435344;1255;112184;-43
2023/06/03 00:24:02;;;;;;;;;;;;;;;5.75;65.68;99120.75;435602;1254;107670;-43
2023/06/03 00:34:08;;;;;;;;;;;;;;;5.54;65.70;99127.84;435385;1253;98012;-42
2023/06/03 00:44:14;;;;;;;;;;;;;;;5.42;65.79;99132.17;435418;1254;112122;-42
2023/06/03 00:54:20;;;;;;;;;;;;;;;5.44;65.87;99130.93;435643;1251;107012;-43
2023/06/03 01:04:29;;;;;;;;;;;;;;;5.36;65.78;99140.45;435526;1253;99205;-42
2023/06/03 01:14:38;;;;;;;;;;;;;;;5.40;66.22;99150.27;435533;1254;107787;-42
2023/06/03 01:24:43;;;;;;;;;;;;;;;5.12;66.02;99148.09;436121;1254;99116;-43
2023/06/03 01:34:50;;;;;;;;;;;;;;;4.87;66.33;99152.64;436321;1252;111445;-43
2023/06/03 01:44:57;;;;;;;;;;;;;;;4.57;66.23;99155.10;435385;1252;108033;-41
2023/06/03 02:05:09;;;;;;;;;;;;;;;4.21;66.85;99167.28;435520;1252;112755;-42
2023/06/03 02:15:15;;;;;;;;;;;;;;;4.15;67.12;99170.08;435550;1252;108167;-42
2023/06/03 02:25:21;;;;;;;;;;;;;;;4.00;67.17;99172.60;435488;1249;98583;-43
2023/06/03 02:35:27;;;;;;;;;;;;;;;3.81;67.25;99180.02;435674;1254;111232;-41
2023/06/03 02:45:33;;;;;;;;;;;;;;;3.72;67.32;99180.04;435416;1252;108355;-41
2023/06/03 02:55:38;;;;;;;;;;;;;;;3.88;67.35;99185.42;435595;1253;99191;-43
2023/06/03 03:05:44;;;;;;;;;;;;;;;4.08;67.35;99186.70;435695;1252;108303;-42
2023/06/03 03:15:50;;;;;;;;;;;;;;;4.49;67.35;99190.71;435581;1255;99324;-42
2023/06/03 03:25:57;;;;;;;;;;;;;;;6.88;66.46;99195.73;435479;1252;111433;-43
2023/06/03 03:56:20;;;;;;;;;;;;;;;12.71;60.47;99210.63;435074;1254;480944;-44
2023/06/03 04:06:28;;;;;;;;;;;;;;;14.15;58.82;99215.33;435370;1252;106938;-44
2023/06/03 04:26:47;;;;;;;;;;;;;;;17.23;55.48;99220.34;435567;1252;108058;-43
2023/06/03 04:36:52;;;;;;;;;;;;;;;17.87;53.77;99229.30;435757;1255;98380;-44
2023/06/03 04:47:00;;;;;;;;;;;;;;;17.86;52.20;99239.59;435745;1249;110896;-44
2023/06/03 04:57:07;;;;;;;;;;;;;;;16.43;51.73;99247.02;435721;1255;107522;-45
2023/06/03 05:07:13;;;;;;;;;;;;;;;15.28;50.59;99252.88;435505;1255;98822;-43
2023/06/03 05:17:19;;;;;;;;;;;;;;;14.15;50.19;99259.50;435367;1255;108559;-44
2023/06/03 05:27:24;;;;;;;;;;;;;;;13.70;49.66;99270.98;435333;1255;98900;-44
2023/06/03 05:37:30;;;;;;;;;;;;;;;13.03;49.68;99271.90;435415;1254;112105;-41
2023/06/03 05:47:35;;;;;;;;;;;;;;;12.69;50.41;99270.23;435561;1254;108171;-44
2023/06/03 05:57:42;;;;;;;;;;;;;;;13.29;50.27;99270.25;435488;1253;99227;-43
2023/06/03 06:07:47;;;;;;;;;;;;;;;13.09;49.64;99273.02;435404;1255;107350;-43
2023/06/03 06:17:53;;;;;;;;;;;;;;;13.44;49.77;99277.60;435646;1263;98005;-43
2023/06/03 06:27:59;;;;;;;;;;;;;;;13.64;49.45;99284.58;435520;1263;111046;-42
2023/06/03 06:38:05;;;;;;;;;;;;;;;14.06;49.69;99281.92;435548;1263;107002;-43
2023/06/03 06:48:12;;;;;;;;;;;;;;;14.01;49.16;99285.41;435647;1252;97972;-42
2023/06/03 06:58:18;;;;;;;;;;;;;;;14.01;49.25;99285.87;435629;1262;108006;-42
2023/06/03 07:08:24;;;;;;;;;;;;;;;14.36;48.96;99292.35;435548;1253;98332;-44
2023/06/03 07:18:29;;;;;;;;;;;;;;;14.60;48.68;99298.25;435710;1253;111690;-43
2023/06/03 07:28:37;;;;;;;;;;;;;;;14.51;48.04;99298.27;435490;1254;107432;-44
2023/06/03 07:39:00;;;;;;;;;;;;;;;14.95;48.51;99296.33;435637;1263;99215;-42
2023/06/03 07:49:07;;;;;;;;;;;;;;;15.29;47.62;99302.09;435563;1254;107330;-44
2023/06/03 07:59:14;;;;;;;;;;;;;;;15.13;47.11;99302.21;435672;1254;99233;-43
2023/06/03 08:09:25;;;;;;;;;;;;;;;15.50;46.59;99298.67;435626;1254;112903;-42
2023/06/03 08:19:31;;;;;;;;;;;;;;;15.59;46.03;99303.88;435449;1255;107276;-43
2023/06/03 08:29:37;;;;;;;;;;;;;;;15.70;45.16;99299.98;435649;1251;98692;-41
2023/06/03 08:39:42;;;;;;;;;;;;;;;16.04;44.53;99300.70;435723;1253;110019;-44
2023/06/03 08:49:54;;;;;;;;;;;;;;;15.78;43.71;99300.68;435745;1251;98046;-44
2023/06/03 09:00:00;;;;;;;;;;;;;;;16.18;43.48;99307.55;436374;1254;110698;-42
2023/06/03 09:10:08;;;;;;;;;;;;;;;16.38;42.92;99308.01;435524;1255;106514;-42
2023/06/03 09:20:15;;;;;;;;;;;;;;;16.32;41.78;99308.38;435552;1254;99196;-44
2023/06/03 09:30:20;;;;;;;;;;;;;;;16.11;40.22;99307.22;435623;1254;108428;-44
2023/06/03 09:40:27;;;;;;;;;;;;;;;16.27;40.63;99301.63;435694;1254;98832;-43
2023/06/03 09:50:33;;;;;;;;;;;;;;;16.90;39.32;99294.48;435660;1251;111892;-44
2023/06/03 10:10:57;;;;;;;;;;;;;;;16.68;39.09;99287.98;435774;1255;99234;-43
2023/06/03 10:21:05;;;;;;;;;;;;;;;16.87;38.15;99283.79;435667;1253;107810;-44
2023/06/03 10:31:12;;;;;;;;;;;;;;;16.97;38.34;99278.84;435722;1251;99224;-43
2023/06/03 10:41:20;;;;;;;;;;;;;;;17.21;37.59;99261.00;435572;1254;111602;-44
2023/06/03 10:51:30;;;;;;;;;;;;;;;17.45;37.50;99250.94;435633;1254;107928;-43
2023/06/03 11:01:53;;;;;;;;;;;;;;;17.52;36.92;99246.23;435618;1254;98868;-42
2023/06/03 11:42:21;;;;;;;;;;;;;;;17.90;35.67;99236.19;435645;1263;107299;-44
2023/06/03 11:52:27;;;;;;;;;;;;;;;18.13;35.49;99226.84;435766;1250;97993;-42
2023/06/03 12:12:51;;;;;;;;;;;;;;;18.15;35.02;99224.55;435865;1252;99239;-42
2023/06/03 12:23:03;;;;;;;;;;;;;;;18.41;34.83;99217.48;435825;1254;111188;-43
2023/06/03 12:33:09;;;;;;;;;;;;;;;18.39;34.76;99214.05;435726;1254;108377;-42
2023/06/03 12:43:21;;;;;;;;;;;;;;;18.32;34.00;99204.77;435698;1254;98495;-44
2023/06/03 13:13:37;;;;;;;;;;;;;;;18.44;33.62;99174.90;435749;1253;111332;-41
2023/06/03 13:23:42;;;;;;;;;;;;;;;18.21;33.27;99175.73;435517;1255;107991;-43
2023/06/03 13:33:48;;;;;;;;;;;;;;;18.23;33.71;99163.91;435727;1249;99864;-42
2023/06/03 13:43:54;;;;;;;;;;;;;;;18.27;33.85;99155.89;435535;1254;108648;-41
2023/06/03 13:53:59;;;;;;;;;;;;;;;18.53;33.77;99149.46;435782;1249;99317;-42
2023/06/03 14:04:05;;;;;;;;;;;;;;;18.37;33.53;99143.63;435608;1254;112874;-43
2023/06/03 14:14:10;;;;;;;;;;;;;;;18.33;33.67;99135.10;435479;1253;108001;-44
2023/06/03 14:24:16;;;;;;;;;;;;;;;18.40;33.52;99134.67;435760;1249;97977;-43
2023/06/03 14:34:22;;;;;;;;;;;;;;;18.50;33.54;99126.44;435414;1254;108586;-43
2023/06/03 14:44:27;;;;;;;;;;;;;;;18.41;33.03;99122.42;435444;1254;99227;-43
2023/06/03 14:54:33;;;;;;;;;;;;;;;18.32;33.15;99109.95;435523;1254;110849;-43
2023/06/03 15:04:38;;;;;;;;;;;;;;;18.38;33.43;99103.84;435427;1254;107747;-43
2023/06/03 15:14:44;;;;;;;;;;;;;;;18.42;33.37;99091.89;435375;1249;99104;-44
2023/06/03 15:24:50;;;;;;;;;;;;;;;18.32;33.23;99089.13;435488;1253;108447;-42
2023/06/03 15:34:55;;;;;;;;;;;;;;;18.16;33.10;99082.38;435551;1250;98044;-43
2023/06/03 15:45:01;;;;;;;;;;;;;;;17.99;33.38;99075.31;435334;1254;111439;-43
2023/06/03 15:55:07;;;;;;;;;;;;;;;18.00;33.62;99056.59;434992;1254;550856;-42
2023/06/03 16:05:13;;;;;;;;;;;;;;;18.02;33.61;99054.34;435395;1249;98195;-42
2023/06/03 16:15:19;;;;;;;;;;;;;;;18.10;34.03;99056.48;435460;1254;108821;-42
2023/06/03 16:25:25;;;;;;;;;;;;;;;18.02;33.81;99050.74;435385;1254;99260;-45
2023/06/03 16:35:31;;;;;;;;;;;;;;;17.71;33.42;99050.92;435396;1253;112915;-44
2023/06/03 16:45:37;;;;;;;;;;;;;;;17.64;33.90;99048.02;435356;1254;107491;-43
2023/06/03 16:55:43;;;;;;;;;;;;;;;17.51;34.07;99047.14;435487;1254;99241;-43
2023/06/03 17:05:48;;;;;;;;;;;;;;;17.38;34.22;99041.49;435385;1254;108440;-43
2023/06/03 17:15:54;;;;;;;;;;;;;;;17.21;34.23;99035.73;435512;1254;98581;-42
2023/06/03 17:26:00;;;;;;;;;;;;;;;17.03;34.44;99035.71;435332;1253;113022;-42
2023/06/03 17:36:06;;;;;;;;;;;;;;;16.86;34.89;99039.02;435399;1254;108196;-43
2023/06/03 17:46:11;;;;;;;;;;;;;;;16.61;35.02;99038.27;435343;1254;99214;-43
2023/06/03 17:56:17;;;;;;;;;;;;;;;16.38;35.34;99033.05;435398;1253;108672;-43
2023/06/03 18:06:23;;;;;;;;;;;;;;;16.15;35.68;99030.40;435515;1255;99240;-42
2023/06/03 18:16:28;;;;;;;;;;;;;;;15.85;36.19;99039.13;435394;1254;110592;-43
2023/06/03 18:26:34;;;;;;;;;;;;;;;15.54;36.70;99047.77;435443;1254;108489;-43
2023/06/03 18:36:40;;;;;;;;;;;;;;;15.20;37.22;99054.00;435243;1253;99256;-43
2023/06/03 18:46:45;;;;;;;;;;;;;;;14.88;37.48;99063.18;435190;1250;108721;-43
2023/06/03 18:56:51;;;;;;;;;;;;;;;14.55;37.97;99072.23;435538;1249;99119;-43
2023/06/03 19:17:00;;;;;;;;;;;;;;;13.92;38.93;99075.63;435278;1253;107965;-43
2023/06/03 19:27:07;;;;;;;;;;;;;;;13.63;39.43;99082.70;435407;1254;99333;-43
2023/06/03 19:37:13;;;;;;;;;;;;;;;13.35;39.72;99095.84;435367;1254;107711;-42
2023/06/03 19:47:18;;;;;;;;;;;;;;;13.07;40.41;99111.34;435365;1254;98831;-43
2023/06/03 19:57:24;;;;;;;;;;;;;;;12.82;40.84;99123.13;435380;1255;111191;-43
2023/06/03 20:07:29;;;;;;;;;;;;;;;12.65;41.43;99127.92;435434;1253;108046;-44
2023/06/03 20:17:35;;;;;;;;;;;;;;;12.41;41.86;99133.05;435366;1251;99224;-42
2023/06/03 20:27:40;;;;;;;;;;;;;;;12.27;42.20;99141.31;435860;1253;108856;-43
2023/06/03 20:37:46;;;;;;;;;;;;;;;12.15;42.49;99154.52;435526;1254;98012;-42
2023/06/03 20:47:52;;;;;;;;;;;;;;;12.03;42.90;99158.89;435316;1253;113555;-42
2023/06/03 20:58:01;;;;;;;;;;;;;;;11.82;43.34;99160.31;435538;1254;108747;-43
2023/06/03 21:08:05;;;;;;;;;;;;;;;11.74;43.71;99163.21;435464;1254;99097;-42
2023/06/03 21:28:16;;;;;;;;;;;;;;;11.54;44.39;99162.73;435343;1253;97932;-41
2023/06/03 21:38:22;;;;;;;;;;;;;;;11.34;44.99;99158.41;435421;1253;110967;-43
2023/06/03 21:48:31;;;;;;;;;;;;;;;10.94;45.68;99155.91;435449;1253;109154;-43
2023/06/03 21:58:37;;;;;;;;;;;;;;;10.33;46.61;99149.23;435138;1254;98343;-43
2023/06/03 22:08:43;;;;;;;;;;;;;;;9.88;47.53;99149.88;435328;1253;108249;-43
2023/06/03 22:18:49;;;;;;;;;;;;;;;9.44;48.56;99158.23;435370;1253;99211;-42
2023/06/03 22:28:54;;;;;;;;;;;;;;;9.07;49.39;99155.17;435479;1254;111867;-42
2023/06/03 22:39:00;;;;;;;;;;;;;;;8.73;50.17;99151.22;435416;1253;108328;-42
2023/06/03 22:49:06;;;;;;;;;;;;;;;8.40;50.82;99145.38;435069;1253;98818;-42
2023/06/03 22:59:12;;;;;;;;;;;;;;;8.09;51.47;99145.63;435339;1254;98058;-43
2023/06/03 23:09:18;;;;;;;;;;;;;;;7.84;52.32;99147.48;435094;1253;112509;-43
2023/06/03 23:19:24;;;;;;;;;;;;;;;7.66;53.03;99148.70;435348;1256;106784;-42
2023/06/03 23:29:30;;;;;;;;;;;;;;;7.45;53.65;99155.95;435373;1255;99217;-42
2023/06/03 23:39:36;;;;;;;;;;;;;;;7.25;54.28;99154.00;435434;1255;117364;-41
2023/06/03 23:49:42;;;;;;;;;;;;;;;7.03;54.89;99152.19;435246;1249;108494;-42
2023/06/03 23:59:48;;;;;;;;;;;;;;;6.88;55.25;99139.45;435461;1255;99253;-42
